Long Sutton, United Kingdom
Current Conditions -  °F | °C
As of 12:50 PM on Friday 24 Oct 2014 (Local Time) from EGVO Reporting Station
Drizzle Drizzle  
Wind Chill: 61°   Ceiling: 2200
Heat Index: 61°   Visibility: 6mi
Dew Point: 55°   Wind: 8mph
Humidity: 82%   Direction: 210°SSW
Pressure: 29.94"   Gusts: NA
Location:  51.22°N, 0.93°W
Report Text: EGVO 241150Z 21007KT 9999 -DZ SCT014 BKN022 16/13 Q1014 GRN NOSIG
Loading
Personal Weather Stations






























Interactive Weather Map
Tropical Storm Tracking
New forecast layout! Learn more

10-Day Weather Forecast

Advertisements
Track Severe Weather on mobile